Time;durP1;ratioP1;P1;durP2;ratioP2;P2;SDS_P1;SDS_P2;PMS_P1;PMS_P2;Temp;Humidity;BMP_temperature;BMP_pressure;BME280_temperature;BME280_humidity;BME280_pressure;Samples;Min_cycle;Max_cycle;Signal;HPM_P1;HPM_P2
2024/04/02 00:01:21;;;;;;;2.85;1.45;;;12.00;94.70;;;;;;5048909;28;20036;-74
2024/04/02 00:03:47;;;;;;;6.05;2.00;;;12.00;94.90;;;;;;5069109;28;20028;-75
2024/04/02 00:06:13;;;;;;;3.10;2.05;;;12.00;95.00;;;;;;5049288;28;20043;-75
2024/04/02 00:08:38;;;;;;;4.07;1.92;;;11.80;94.90;;;;;;5063397;28;20029;-75
2024/04/02 00:11:05;;;;;;;6.22;1.67;;;11.80;95.00;;;;;;5062234;28;20552;-74
2024/04/02 00:13:31;;;;;;;3.72;1.45;;;11.80;95.10;;;;;;5049931;28;20095;-75
2024/04/02 00:15:57;;;;;;;11.82;2.83;;;11.80;95.10;;;;;;5051210;28;20032;-75
2024/04/02 00:18:24;;;;;;;6.82;2.33;;;11.70;95.10;;;;;;5060235;28;20087;-75
2024/04/02 00:20:57;;;;;;;3.90;2.45;;;11.80;95.20;;;;;;5050616;28;20039;-75
2024/04/02 00:23:23;;;;;;;6.10;1.80;;;11.70;95.20;;;;;;5056353;28;20036;-75
2024/04/02 00:25:58;;;;;;;4.93;2.55;;;11.70;95.20;;;;;;5055254;28;20033;-75
2024/04/02 00:28:24;;;;;;;3.95;2.33;;;11.70;95.20;;;;;;5056660;28;20036;-75
2024/04/02 00:30:49;;;;;;;7.38;2.80;;;11.70;95.20;;;;;;5064475;28;20035;-75
2024/04/02 00:33:15;;;;;;;3.28;1.88;;;11.70;95.20;;;;;;5058207;28;20519;-74
2024/04/02 00:35:40;;;;;;;4.20;2.38;;;11.70;95.20;;;;;;5062609;28;20035;-75
2024/04/02 00:38:06;;;;;;;7.38;1.98;;;11.70;95.20;;;;;;5064069;28;20024;-75
2024/04/02 00:40:32;;;;;;;8.30;3.60;;;11.60;95.20;;;;;;5050799;28;20021;-75
2024/04/02 00:43:07;;;;;;;5.18;1.95;;;11.60;95.20;;;;;;5050495;28;20033;-75
2024/04/02 00:45:33;;;;;;;10.25;2.42;;;11.70;95.30;;;;;;5052187;28;20476;-75
2024/04/02 00:47:58;;;;;;;5.70;2.15;;;11.60;95.30;;;;;;5063160;28;20028;-75
2024/04/02 00:50:25;;;;;;;2.80;2.00;;;11.60;95.30;;;;;;5056240;28;20082;-75
2024/04/02 00:52:51;;;;;;;6.80;3.42;;;11.60;95.30;;;;;;5058802;28;20090;-75
2024/04/02 00:55:16;;;;;;;8.10;3.63;;;11.60;95.30;;;;;;5053649;28;20029;-75
2024/04/02 00:57:42;;;;;;;10.68;3.80;;;11.60;95.30;;;;;;5045997;28;20090;-75
2024/04/02 01:00:08;;;;;;;7.88;3.72;;;11.60;95.30;;;;;;5046206;28;20147;-74
2024/04/02 01:02:33;;;;;;;4.65;3.00;;;11.80;95.30;;;;;;5049404;28;20036;-75
2024/04/02 01:04:59;;;;;;;13.02;3.92;;;11.80;95.20;;;;;;5046564;28;20486;-75
2024/04/02 01:07:25;;;;;;;8.07;4.15;;;11.80;95.10;;;;;;5058089;28;20044;-74
2024/04/02 01:09:51;;;;;;;5.25;2.33;;;11.80;95.00;;;;;;5051852;28;20120;-74
2024/04/02 01:12:17;;;;;;;8.35;2.88;;;11.80;95.00;;;;;;5059865;28;20111;-74
2024/04/02 01:14:43;;;;;;;2.83;1.73;;;11.80;94.90;;;;;;5047777;28;20477;-74
2024/04/02 01:17:09;;;;;;;5.80;2.65;;;11.80;94.90;;;;;;5045111;28;20041;-75
2024/04/02 01:19:35;;;;;;;9.00;2.92;;;11.80;95.00;;;;;;5056866;28;20523;-84
2024/04/02 01:22:01;;;;;;;5.38;1.42;;;11.70;95.00;;;;;;5064572;28;20502;-73
2024/04/02 01:24:27;;;;;;;3.88;1.67;;;11.70;95.00;;;;;;5048006;28;20032;-75
2024/04/02 01:26:53;;;;;;;4.20;2.13;;;11.70;95.10;;;;;;5053172;28;20383;-75
2024/04/02 01:29:19;;;;;;;5.03;2.33;;;11.60;95.20;;;;;;5053463;28;20043;-78
2024/04/02 01:31:45;;;;;;;8.02;3.05;;;11.50;95.30;;;;;;5053089;28;20040;-75
2024/04/02 01:34:12;;;;;;;1.95;1.42;;;11.50;95.40;;;;;;5051696;28;20033;-75
2024/04/02 01:36:38;;;;;;;6.85;2.75;;;11.40;95.50;;;;;;5050279;28;20048;-75
2024/04/02 01:39:04;;;;;;;3.75;2.53;;;11.40;95.60;;;;;;5051905;28;20033;-75
2024/04/02 01:41:30;;;;;;;1.92;1.60;;;11.30;95.60;;;;;;5055151;28;20063;-75
2024/04/02 01:43:55;;;;;;;2.25;1.42;;;11.30;95.70;;;;;;5056079;28;20025;-75
2024/04/02 01:46:21;;;;;;;2.22;1.80;;;11.20;95.80;;;;;;5046264;28;20071;-75
2024/04/02 01:48:49;;;;;;;2.92;2.10;;;11.20;95.90;;;;;;5056052;28;20024;-75
2024/04/02 01:51:15;;;;;;;5.57;2.30;;;11.10;96.10;;;;;;5061347;28;20024;-75
2024/04/02 01:53:42;;;;;;;3.13;1.30;;;11.10;96.20;;;;;;5060147;28;20029;-75
2024/04/02 01:56:08;;;;;;;9.15;2.03;;;11.10;96.20;;;;;;5059576;28;20045;-75
2024/04/02 01:58:33;;;;;;;5.15;2.10;;;11.10;96.30;;;;;;5063120;28;20056;-75
2024/04/02 02:00:59;;;;;;;4.07;2.55;;;11.10;96.30;;;;;;5068016;28;20017;-75
2024/04/02 02:03:25;;;;;;;2.83;1.75;;;11.10;96.40;;;;;;5065499;28;20455;-75
2024/04/02 02:05:50;;;;;;;1.17;1.05;;;11.10;96.40;;;;;;5067266;28;20116;-75
2024/04/02 02:08:16;;;;;;;3.40;1.65;;;11.10;96.40;;;;;;5050426;28;20442;-75
2024/04/02 02:10:41;;;;;;;2.20;1.75;;;11.10;96.40;;;;;;5055664;28;20020;-74
2024/04/02 02:13:08;;;;;;;1.65;1.00;;;11.10;96.40;;;;;;5055463;28;20055;-75
2024/04/02 02:15:37;;;;;;;2.72;1.77;;;11.10;96.40;;;;;;5051591;28;20028;-74
2024/04/02 02:18:03;;;;;;;3.53;2.00;;;11.10;96.30;;;;;;5053544;28;20049;-75
2024/04/02 02:20:29;;;;;;;1.38;1.13;;;11.10;96.40;;;;;;5056466;28;20440;-75
2024/04/02 02:22:55;;;;;;;7.57;2.20;;;11.10;96.50;;;;;;5061745;28;20056;-75
2024/04/02 02:25:20;;;;;;;2.97;1.92;;;11.10;96.50;;;;;;5056856;28;20424;-75
2024/04/02 02:27:46;;;;;;;2.63;1.50;;;11.00;96.50;;;;;;5061469;28;20033;-75
2024/04/02 02:30:11;;;;;;;2.92;1.58;;;11.00;96.50;;;;;;5054303;28;20120;-75
2024/04/02 02:32:37;;;;;;;6.05;2.40;;;11.00;96.50;;;;;;5057012;28;20482;-76
2024/04/02 02:35:03;;;;;;;6.13;2.50;;;11.00;96.50;;;;;;5068038;28;20039;-74
2024/04/02 02:37:30;;;;;;;4.10;2.25;;;11.00;96.80;;;;;;5067864;28;20048;-74
2024/04/02 02:39:56;;;;;;;6.40;2.00;;;11.00;96.60;;;;;;5062678;28;20024;-74
2024/04/02 02:42:23;;;;;;;1.98;1.27;;;10.90;96.70;;;;;;5053446;28;20040;-76
2024/04/02 02:44:50;;;;;;;6.10;2.88;;;10.90;96.70;;;;;;5050686;28;20029;-74
2024/04/02 02:47:15;;;;;;;5.30;2.33;;;10.90;96.70;;;;;;5050123;28;20028;-71
2024/04/02 02:49:41;;;;;;;5.35;1.63;;;10.90;96.70;;;;;;5049642;28;20029;-75
2024/04/02 02:52:07;;;;;;;8.73;2.72;;;10.90;96.70;;;;;;5059038;28;20147;-74
2024/04/02 02:54:32;;;;;;;9.57;1.65;;;10.90;96.70;;;;;;5049508;28;20108;-74
2024/04/02 02:56:58;;;;;;;4.80;2.28;;;10.90;96.70;;;;;;5066065;28;20086;-74
2024/04/02 02:59:24;;;;;;;8.52;2.50;;;10.80;96.80;;;;;;5060634;28;20064;-75
2024/04/02 03:01:49;;;;;;;3.33;1.67;;;10.80;96.80;;;;;;5049359;28;20040;-75
2024/04/02 03:04:15;;;;;;;7.47;3.80;;;10.80;96.80;;;;;;5056118;28;20021;-74
2024/04/02 03:06:40;;;;;;;8.77;2.95;;;10.80;96.80;;;;;;5067700;28;20028;-74
2024/04/02 03:09:06;;;;;;;3.05;2.13;;;10.80;96.90;;;;;;5057131;28;20079;-74
2024/04/02 03:11:32;;;;;;;3.28;1.85;;;10.80;96.90;;;;;;5063423;28;20044;-74
2024/04/02 03:14:01;;;;;;;5.22;1.95;;;10.80;96.80;;;;;;5056397;28;20032;-75
2024/04/02 03:16:26;;;;;;;1.42;1.33;;;10.80;96.80;;;;;;5064973;28;20144;-74
2024/04/02 03:18:52;;;;;;;4.80;2.97;;;10.80;96.90;;;;;;5054351;28;20143;-74
2024/04/02 03:21:20;;;;;;;3.63;1.70;;;10.80;96.80;;;;;;5062867;28;20096;-74
2024/04/02 03:23:46;;;;;;;3.88;2.13;;;10.80;96.80;;;;;;5054315;28;20040;-74
2024/04/02 03:26:13;;;;;;;5.50;2.83;;;10.80;96.80;;;;;;5056560;28;20044;-75
2024/04/02 03:28:40;;;;;;;4.95;3.00;;;10.80;96.80;;;;;;5063723;28;20094;-74
2024/04/02 03:31:06;;;;;;;5.72;2.72;;;10.80;96.80;;;;;;5057333;28;20551;-74
2024/04/02 03:33:32;;;;;;;4.68;3.30;;;10.80;96.80;;;;;;5059644;28;20058;-74
2024/04/02 03:36:03;;;;;;;9.02;2.63;;;10.80;96.80;;;;;;5059742;28;20060;-74
2024/04/02 03:38:29;;;;;;;4.15;1.90;;;10.80;96.80;;;;;;5063817;28;20033;-75
2024/04/02 03:40:55;;;;;;;7.82;0.88;;;10.90;96.80;;;;;;5069542;28;20051;-74
2024/04/02 03:43:20;;;;;;;6.15;3.42;;;10.90;96.70;;;;;;5051428;28;20028;-74
2024/04/02 03:45:46;;;;;;;4.45;1.95;;;10.80;96.70;;;;;;5058979;28;20120;-74
2024/04/02 03:48:12;;;;;;;6.82;3.88;;;10.80;96.80;;;;;;5054040;28;20713;-74
2024/04/02 03:50:38;;;;;;;7.32;3.72;;;10.80;96.80;;;;;;5054464;28;20036;-74
2024/04/02 03:53:05;;;;;;;3.35;1.98;;;10.70;96.90;;;;;;5051809;28;20033;-74
2024/04/02 03:55:37;;;;;;;6.63;3.38;;;10.70;97.00;;;;;;5049537;28;20040;-74
2024/04/02 03:58:04;;;;;;;5.70;3.50;;;10.80;97.00;;;;;;5061785;28;20103;-73
2024/04/02 04:00:30;;;;;;;7.50;3.38;;;10.70;97.00;;;;;;5049275;28;20021;-74
2024/04/02 04:02:56;;;;;;;5.47;3.65;;;10.70;97.00;;;;;;5064243;28;20028;-75
2024/04/02 04:05:23;;;;;;;6.00;4.10;;;10.70;97.00;;;;;;5058367;28;20029;-74
2024/04/02 04:07:48;;;;;;;5.65;3.03;;;10.70;97.10;;;;;;5060745;28;20044;-74
2024/04/02 04:10:14;;;;;;;8.68;2.40;;;10.70;97.10;;;;;;5048717;28;20017;-74
2024/04/02 04:12:42;;;;;;;7.25;5.00;;;10.70;97.20;;;;;;5051196;28;20484;-74
2024/04/02 04:15:07;;;;;;;10.63;3.67;;;10.70;97.20;;;;;;5057548;28;20357;-74
2024/04/02 04:17:33;;;;;;;4.38;2.83;;;10.60;97.30;;;;;;5059952;28;20052;-74
2024/04/02 04:19:59;;;;;;;6.25;3.00;;;10.70;97.40;;;;;;5049246;28;20063;-74
2024/04/02 04:22:25;;;;;;;5.18;2.92;;;10.70;97.40;;;;;;5062949;28;20404;-74
2024/04/02 04:25:02;;;;;;;10.50;4.47;;;10.60;97.40;;;;;;5057103;28;20047;-74
2024/04/02 04:27:32;;;;;;;5.97;2.92;;;10.60;97.50;;;;;;5059747;28;20033;-74
2024/04/02 04:30:03;;;;;;;12.60;4.85;;;10.60;97.50;;;;;;5049396;28;20110;-74
2024/04/02 04:32:29;;;;;;;7.65;4.28;;;10.60;97.50;;;;;;5060876;28;20043;-74
2024/04/02 04:34:55;;;;;;;10.88;4.78;;;10.60;97.60;;;;;;5058379;28;20033;-74
2024/04/02 04:37:20;;;;;;;6.60;4.75;;;10.60;97.60;;;;;;5068582;28;20145;-74
2024/04/02 04:39:46;;;;;;;5.70;4.38;;;10.60;97.60;;;;;;5053839;28;20507;-74
2024/04/02 04:42:11;;;;;;;4.65;3.42;;;10.60;97.60;;;;;;5055755;28;20032;-74
2024/04/02 04:44:37;;;;;;;5.53;3.55;;;10.60;97.60;;;;;;5052788;28;20411;-74
2024/04/02 04:47:03;;;;;;;7.93;4.68;;;10.60;97.60;;;;;;5049848;28;20110;-74
2024/04/02 04:49:28;;;;;;;4.95;3.20;;;10.60;97.60;;;;;;5046483;28;20055;-74
2024/04/02 04:51:54;;;;;;;4.82;3.25;;;10.60;97.50;;;;;;5050643;28;20123;-74
2024/04/02 04:54:20;;;;;;;5.15;3.42;;;10.60;97.60;;;;;;5048126;28;20130;-74
2024/04/02 04:56:49;;;;;;;8.65;4.53;;;10.60;97.60;;;;;;5047230;28;20047;-74
2024/04/02 04:59:14;;;;;;;8.73;4.40;;;10.60;97.60;;;;;;5065167;28;20502;-74
2024/04/02 05:01:40;;;;;;;10.50;5.05;;;10.50;97.60;;;;;;5068474;28;20032;-74
2024/04/02 05:04:06;;;;;;;7.68;4.38;;;10.50;97.60;;;;;;5063749;28;20048;-74
2024/04/02 05:06:36;;;;;;;7.10;4.72;;;10.50;97.60;;;;;;5052327;28;20041;-74
2024/04/02 05:09:02;;;;;;;8.55;4.80;;;10.50;97.70;;;;;;5052823;28;20032;-74
2024/04/02 05:11:27;;;;;;;2.83;2.38;;;10.50;97.80;;;;;;5060433;28;20078;-75
2024/04/02 05:13:53;;;;;;;1.42;1.33;;;10.50;97.80;;;;;;5065490;28;20031;-74
2024/04/02 05:16:18;;;;;;;8.63;3.30;;;10.50;97.70;;;;;;5054667;28;20032;-74
2024/04/02 05:18:44;;;;;;;6.57;4.07;;;10.50;97.70;;;;;;5047031;28;20033;-74
2024/04/02 05:21:10;;;;;;;5.00;3.20;;;10.50;97.70;;;;;;5053866;28;20020;-75
2024/04/02 05:23:35;;;;;;;6.05;3.15;;;10.50;97.60;;;;;;5060146;28;20039;-74
2024/04/02 05:26:01;;;;;;;9.75;3.75;;;10.60;97.60;;;;;;5059030;28;20028;-74
2024/04/02 05:28:27;;;;;;;5.55;3.50;;;10.50;97.60;;;;;;5067378;28;20047;-74
2024/04/02 05:30:53;;;;;;;11.00;3.88;;;10.60;97.60;;;;;;5065306;28;20095;-74
2024/04/02 05:33:19;;;;;;;3.25;2.20;;;10.60;97.60;;;;;;5062074;28;20087;-74
2024/04/02 05:35:45;;;;;;;2.83;1.90;;;10.50;97.60;;;;;;5061609;28;20032;-75
2024/04/02 05:38:11;;;;;;;6.63;2.90;;;10.50;97.60;;;;;;5053128;28;20087;-74
2024/04/02 05:40:39;;;;;;;8.18;4.07;;;10.50;97.60;;;;;;5059834;28;20032;-74
2024/04/02 05:43:04;;;;;;;6.20;2.88;;;10.60;97.60;;;;;;5058123;28;20025;-75
2024/04/02 05:45:30;;;;;;;2.75;2.05;;;10.50;97.70;;;;;;5065233;28;20506;-75
2024/04/02 05:47:56;;;;;;;1.98;1.67;;;10.50;97.70;;;;;;5057871;28;20037;-74
2024/04/02 05:50:21;;;;;;;7.05;4.18;;;10.50;97.80;;;;;;5054968;28;20070;-74
2024/04/02 05:52:47;;;;;;;5.65;3.45;;;10.50;97.80;;;;;;5054193;28;20028;-74
2024/04/02 05:55:13;;;;;;;7.13;4.07;;;10.50;97.80;;;;;;5067259;28;20036;-75
2024/04/02 05:57:39;;;;;;;3.72;2.80;;;10.50;97.70;;;;;;5056015;28;20049;-74
2024/04/02 06:00:05;;;;;;;3.25;2.10;;;10.50;97.70;;;;;;5064912;28;20111;-73
2024/04/02 06:02:37;;;;;;;4.10;2.50;;;10.50;97.70;;;;;;5055078;28;20028;-72
2024/04/02 06:05:04;;;;;;;1.88;1.73;;;10.50;97.70;;;;;;5055049;28;20028;-74
2024/04/02 06:07:30;;;;;;;4.07;2.85;;;10.50;97.80;;;;;;5070677;28;20079;-74
2024/04/02 06:09:55;;;;;;;11.30;3.90;;;10.60;97.70;;;;;;5068203;28;20502;-74
2024/04/02 06:12:21;;;;;;;5.22;2.53;;;10.60;97.70;;;;;;5070669;28;20039;-73
2024/04/02 06:14:47;;;;;;;15.80;3.47;;;10.60;97.70;;;;;;5067986;28;20105;-73
2024/04/02 06:17:13;;;;;;;2.63;1.98;;;10.60;97.80;;;;;;5056791;28;20051;-76
2024/04/02 06:19:39;;;;;;;5.43;3.13;;;10.60;97.80;;;;;;5067886;28;20025;-74
2024/04/02 06:22:05;;;;;;;4.93;2.53;;;10.60;97.90;;;;;;5062532;28;20032;-74
2024/04/02 06:24:31;;;;;;;1.50;1.30;;;10.60;97.90;;;;;;5059939;28;20346;-74
2024/04/02 06:26:56;;;;;;;6.20;3.88;;;10.60;98.00;;;;;;5052533;28;20090;-75
2024/04/02 06:29:22;;;;;;;3.42;2.30;;;10.60;98.00;;;;;;5062991;28;20490;-74
2024/04/02 06:31:48;;;;;;;3.20;2.10;;;10.60;98.10;;;;;;5064913;28;20395;-74
2024/04/02 06:34:13;;;;;;;7.30;3.42;;;10.60;98.10;;;;;;5061479;28;20020;-74
2024/04/02 06:36:39;;;;;;;5.72;3.75;;;10.60;98.10;;;;;;5066897;28;20072;-75
2024/04/02 06:39:07;;;;;;;6.05;2.38;;;10.60;98.10;;;;;;5054405;28;20623;-75
2024/04/02 06:41:33;;;;;;;5.60;2.92;;;10.60;98.20;;;;;;5053615;28;20051;-77
2024/04/02 06:44:00;;;;;;;5.30;3.20;;;10.70;98.30;;;;;;5056700;28;20063;-76
2024/04/02 06:46:26;;;;;;;8.60;4.50;;;10.60;98.30;;;;;;5057367;28;20383;-77
2024/04/02 06:48:51;;;;;;;7.95;4.35;;;10.60;98.40;;;;;;5060629;28;20025;-76
2024/04/02 06:51:17;;;;;;;3.28;2.40;;;10.60;98.50;;;;;;5058909;28;20094;-76
2024/04/02 06:53:44;;;;;;;7.90;3.22;;;10.60;98.70;;;;;;5053719;28;20025;-77
2024/04/02 06:56:10;;;;;;;7.95;4.47;;;10.60;98.80;;;;;;5068656;28;20036;-77
2024/04/02 06:58:37;;;;;;;9.50;4.63;;;10.60;98.90;;;;;;5067354;28;20074;-77
2024/04/02 07:01:03;;;;;;;7.75;4.93;;;10.60;99.00;;;;;;5056949;28;20025;-77
2024/04/02 07:03:30;;;;;;;6.60;3.65;;;10.50;99.10;;;;;;5061753;28;20135;-76
2024/04/02 07:05:55;;;;;;;10.50;4.10;;;10.60;99.20;;;;;;5066570;28;20534;-77
2024/04/02 07:08:24;;;;;;;11.23;5.18;;;10.60;99.30;;;;;;5060762;28;20535;-76
2024/04/02 07:11:04;;;;;;;8.90;4.75;;;10.60;99.40;;;;;;5052894;28;20388;-72
2024/04/02 07:13:31;;;;;;;7.30;4.13;;;10.60;99.60;;;;;;5045261;28;20033;-76
2024/04/02 07:16:01;;;;;;;11.30;4.55;;;10.60;99.70;;;;;;5058648;28;20033;-76
2024/04/02 07:18:34;;;;;;;9.80;4.60;;;10.60;99.80;;;;;;5053874;28;20106;-76
2024/04/02 07:21:04;;;;;;;2.70;2.22;;;10.60;99.80;;;;;;5059710;28;20118;-76
2024/04/02 07:23:31;;;;;;;5.63;3.30;;;10.70;99.90;;;;;;5057033;28;20037;-75
2024/04/02 07:25:56;;;;;;;9.02;5.25;;;10.70;99.90;;;;;;5060651;28;20036;-76
2024/04/02 07:28:23;;;;;;;4.70;3.10;;;10.70;99.90;;;;;;5055347;28;20048;-76
2024/04/02 07:30:49;;;;;;;7.93;4.38;;;10.70;99.90;;;;;;5058654;28;20036;-77
2024/04/02 07:33:15;;;;;;;5.53;3.80;;;10.80;99.90;;;;;;5054642;28;20482;-77
2024/04/02 07:35:42;;;;;;;9.18;4.47;;;10.80;99.90;;;;;;5057526;28;20408;-77
2024/04/02 07:38:09;;;;;;;9.88;4.80;;;10.80;99.90;;;;;;5056459;28;20074;-76
2024/04/02 07:40:35;;;;;;;9.48;4.35;;;10.80;99.90;;;;;;5056046;28;20040;-76
2024/04/02 07:43:00;;;;;;;7.85;4.75;;;10.80;99.90;;;;;;5059390;28;20033;-76
2024/04/02 07:45:26;;;;;;;9.48;4.82;;;10.80;99.90;;;;;;5058222;28;20532;-76
2024/04/02 07:47:55;;;;;;;9.43;5.40;;;10.90;99.90;;;;;;5063281;28;20032;-78
2024/04/02 07:50:21;;;;;;;11.48;5.30;;;10.90;99.90;;;;;;5049927;28;20079;-78
2024/04/02 07:52:46;;;;;;;13.10;4.75;;;10.90;99.90;;;;;;5051656;28;20036;-78
2024/04/02 07:55:12;;;;;;;11.70;4.35;;;10.90;99.90;;;;;;5051756;28;20017;-78
2024/04/02 07:57:38;;;;;;;7.05;3.92;;;11.00;99.90;;;;;;5055434;28;20049;-78
2024/04/02 08:00:05;;;;;;;7.40;5.00;;;11.10;99.90;;;;;;5048632;28;20123;-78
2024/04/02 08:02:31;;;;;;;15.48;4.85;;;11.10;99.90;;;;;;5050583;28;20523;-78
2024/04/02 08:04:57;;;;;;;11.90;4.80;;;11.10;99.90;;;;;;5048817;28;20028;-78
2024/04/02 08:07:22;;;;;;;7.05;4.20;;;11.10;99.90;;;;;;5048891;28;20090;-77
2024/04/02 08:09:48;;;;;;;11.80;4.38;;;11.10;99.90;;;;;;5051513;28;20579;-78
2024/04/02 08:12:14;;;;;;;10.25;5.18;;;11.20;99.90;;;;;;5051204;28;20037;-78
2024/04/02 08:14:40;;;;;;;8.43;3.83;;;11.30;99.90;;;;;;5061630;28;20051;-78
2024/04/02 08:17:06;;;;;;;7.30;4.13;;;11.30;99.90;;;;;;5057424;28;20072;-78
2024/04/02 08:19:31;;;;;;;6.38;4.18;;;11.40;99.90;;;;;;5060942;28;20123;-78
2024/04/02 08:21:57;;;;;;;8.40;5.32;;;11.40;99.90;;;;;;5054424;28;20032;-78
2024/04/02 08:24:25;;;;;;;10.27;4.30;;;11.50;99.90;;;;;;5068149;28;20021;-78
2024/04/02 08:26:51;;;;;;;10.48;5.28;;;11.50;99.90;;;;;;5047816;28;20064;-77
2024/04/02 08:29:16;;;;;;;9.57;5.45;;;11.60;99.90;;;;;;5058477;28;20052;-78
2024/04/02 08:31:42;;;;;;;9.35;5.25;;;11.60;99.90;;;;;;5066155;28;20083;-78
2024/04/02 08:34:07;;;;;;;10.57;5.28;;;11.60;99.90;;;;;;5065765;28;20120;-79
2024/04/02 08:36:33;;;;;;;11.75;5.38;;;11.70;99.90;;;;;;5058614;28;20040;-78
2024/04/02 08:38:59;;;;;;;10.75;3.40;;;11.70;99.90;;;;;;5052838;28;20021;-78
2024/04/02 08:41:26;;;;;;;12.98;5.68;;;11.80;99.90;;;;;;5064415;28;20523;-78
2024/04/02 08:43:57;;;;;;;13.30;5.40;;;11.80;99.90;;;;;;5049615;28;20048;-78
2024/04/02 08:46:25;;;;;;;11.00;5.15;;;11.80;99.90;;;;;;5061804;28;20036;-78
2024/04/02 08:48:56;;;;;;;14.82;6.63;;;11.80;99.90;;;;;;5051587;28;20152;-78
2024/04/02 08:51:22;;;;;;;17.13;7.20;;;11.80;99.90;;;;;;5056853;28;20366;-78
2024/04/02 08:53:48;;;;;;;14.15;5.35;;;11.80;99.90;;;;;;5049875;28;20041;-78
2024/04/02 08:56:17;;;;;;;13.80;6.88;;;11.90;99.90;;;;;;5060003;28;20047;-78
2024/04/02 08:58:46;;;;;;;11.48;6.10;;;11.90;99.90;;;;;;5054301;28;20043;-79
2024/04/02 09:01:13;;;;;;;8.85;4.60;;;11.90;99.90;;;;;;5049894;28;20033;-79
2024/04/02 09:03:38;;;;;;;13.70;6.10;;;12.00;99.90;;;;;;5051334;28;20391;-78
2024/04/02 09:06:04;;;;;;;10.93;4.75;;;11.90;99.90;;;;;;5057180;28;20020;-78
2024/04/02 09:08:30;;;;;;;11.38;5.15;;;11.90;99.90;;;;;;5051492;28;20828;-79
2024/04/02 09:10:56;;;;;;;11.38;5.00;;;12.00;99.90;;;;;;5058805;28;20029;-79
2024/04/02 09:13:21;;;;;;;9.63;4.82;;;12.00;99.90;;;;;;5066286;28;20051;-79
2024/04/02 09:15:47;;;;;;;14.57;4.28;;;12.10;99.90;;;;;;5057182;28;20632;-80
2024/04/02 09:18:16;;;;;;;10.82;4.78;;;12.20;99.90;;;;;;5060691;28;20044;-79
2024/04/02 09:20:42;;;;;;;14.93;5.18;;;12.20;99.90;;;;;;5055137;28;20636;-79
2024/04/02 09:23:08;;;;;;;12.60;4.72;;;12.20;99.90;;;;;;5067260;28;20044;-79
2024/04/02 09:25:34;;;;;;;10.25;5.20;;;12.30;99.90;;;;;;5059570;28;20570;-79
2024/04/02 09:28:00;;;;;;;10.23;4.45;;;12.30;99.90;;;;;;5060503;28;20120;-79
2024/04/02 09:30:26;;;;;;;13.68;5.38;;;12.40;99.90;;;;;;5057191;28;20032;-80
2024/04/02 09:32:52;;;;;;;12.23;4.43;;;12.40;99.90;;;;;;5057315;28;20059;-80
2024/04/02 09:35:44;;;;;;;13.02;5.63;;;12.50;99.90;;;;;;5050939;28;20025;-80
2024/04/02 09:38:12;;;;;;;8.07;4.35;;;12.50;99.90;;;;;;5059045;28;20365;-81
2024/04/02 09:40:40;;;;;;;10.32;4.20;;;12.60;99.90;;;;;;5053331;28;20040;-80
2024/04/02 09:43:08;;;;;;;8.95;3.50;;;12.60;99.90;;;;;;5054311;28;20047;-81
2024/04/02 09:45:34;;;;;;;11.10;4.57;;;12.60;99.90;;;;;;5045876;28;20147;-80
2024/04/02 09:48:01;;;;;;;15.10;5.43;;;12.70;99.90;;;;;;5060121;28;20069;-80
2024/04/02 09:50:27;;;;;;;9.70;3.92;;;12.70;99.90;;;;;;5064391;28;20036;-77
2024/04/02 09:52:56;;;;;;;15.15;4.57;;;12.70;99.90;;;;;;5049580;28;20041;-78
2024/04/02 09:55:21;;;;;;;11.52;4.50;;;12.80;99.90;;;;;;5047487;28;20040;-78
2024/04/02 09:57:48;;;;;;;14.50;3.63;;;12.80;99.90;;;;;;5058017;28;20135;-77
2024/04/02 10:00:13;;;;;;;9.80;4.15;;;12.90;99.90;;;;;;5054998;28;20511;-81
2024/04/02 10:02:40;;;;;;;13.05;4.78;;;12.90;99.90;;;;;;5062805;28;20032;-77
2024/04/02 10:05:08;;;;;;;8.48;3.28;;;12.90;99.90;;;;;;5046651;28;20056;-77
2024/04/02 10:07:41;;;;;;;10.85;3.05;;;13.00;99.90;;;;;;5045565;28;20037;-78
2024/04/02 10:10:06;;;;;;;8.13;2.97;;;13.10;99.90;;;;;;5063314;28;20651;-78
2024/04/02 10:12:33;;;;;;;12.45;3.80;;;13.20;99.90;;;;;;5055588;28;20040;-78
2024/04/02 10:15:18;;;;;;;11.32;3.45;;;13.20;99.90;;;;;;5049655;28;20033;-78
2024/04/02 10:17:43;;;;;;;11.23;3.55;;;13.30;99.90;;;;;;5053143;28;20058;-79
2024/04/02 10:20:25;;;;;;;8.63;2.80;;;13.30;99.90;;;;;;5070049;28;20531;-78
2024/04/02 10:22:55;;;;;;;8.25;2.83;;;13.30;99.80;;;;;;5066669;28;20383;-78
2024/04/02 10:25:22;;;;;;;9.90;2.92;;;13.30;99.60;;;;;;5067024;28;20070;-77
2024/04/02 10:27:49;;;;;;;10.38;2.97;;;13.40;99.60;;;;;;5063773;28;20115;-78
2024/04/02 10:30:22;;;;;;;6.22;2.50;;;13.30;99.30;;;;;;5063870;28;20058;-81
2024/04/02 10:32:49;;;;;;;10.33;2.63;;;13.40;99.40;;;;;;5056973;28;20404;-78
2024/04/02 10:35:28;;;;;;;8.48;2.80;;;13.40;99.30;;;;;;5060947;28;20448;-78
2024/04/02 10:37:56;;;;;;;11.63;3.28;;;13.40;99.30;;;;;;5056481;28;20047;-79
2024/04/02 10:40:23;;;;;;;9.63;2.70;;;13.30;99.00;;;;;;5068467;28;20037;-78
2024/04/02 10:42:50;;;;;;;11.65;2.90;;;13.40;99.20;;;;;;5053440;28;20102;-76
2024/04/02 10:45:17;;;;;;;3.80;2.10;;;13.40;99.00;;;;;;5054695;28;20048;-76
2024/04/02 10:47:47;;;;;;;7.82;3.22;;;13.50;99.30;;;;;;5059511;28;20043;-77
2024/04/02 10:50:13;;;;;;;9.02;3.05;;;13.50;99.20;;;;;;5058289;28;20021;-77
2024/04/02 10:52:39;;;;;;;9.40;3.28;;;13.50;99.10;;;;;;5053970;28;20063;-78
2024/04/02 10:55:05;;;;;;;13.35;2.65;;;13.50;99.10;;;;;;5052335;28;20025;-78
2024/04/02 10:57:32;;;;;;;8.70;3.53;;;13.60;99.10;;;;;;5054637;28;20053;-78
2024/04/02 11:00:00;;;;;;;7.90;3.65;;;13.60;98.70;;;;;;5063889;28;20115;-77
2024/04/02 11:02:26;;;;;;;9.50;2.58;;;13.60;98.60;;;;;;5046774;28;20039;-77
2024/04/02 11:04:52;;;;;;;6.68;2.35;;;13.60;98.60;;;;;;5058443;28;20108;-77
2024/04/02 11:07:17;;;;;;;11.32;3.40;;;13.60;98.40;;;;;;5054543;28;20097;-79
2024/04/02 11:09:43;;;;;;;6.90;3.50;;;13.70;98.50;;;;;;5052929;28;20025;-76
2024/04/02 11:12:09;;;;;;;6.00;2.75;;;13.70;98.20;;;;;;5059219;28;20037;-77
2024/04/02 11:14:38;;;;;;;10.75;3.60;;;13.70;98.20;;;;;;5064524;28;20051;-76
2024/04/02 11:17:07;;;;;;;13.82;3.78;;;13.70;98.20;;;;;;5042258;28;20056;-75
2024/04/02 11:19:32;;;;;;;4.82;2.92;;;13.60;98.30;;;;;;5060964;28;20037;-76
2024/04/02 11:24:58;;;;;;;11.20;4.68;;;13.70;98.20;;;;;;5060741;28;20080;-75
2024/04/02 11:27:27;;;;;;;11.00;4.38;;;13.70;98.10;;;;;;5062903;28;20366;-75
2024/04/02 11:29:53;;;;;;;8.25;4.65;;;13.70;98.50;;;;;;5057349;28;20037;-75
2024/04/02 11:32:23;;;;;;;13.38;4.25;;;13.80;98.30;;;;;;5061283;28;20120;-76
2024/04/02 11:35:01;;;;;;;10.65;4.68;;;13.90;98.40;;;;;;5053697;28;20103;-76
2024/04/02 11:37:28;;;;;;;10.38;4.13;;;13.90;98.30;;;;;;5049322;28;20040;-75
2024/04/02 11:39:54;;;;;;;7.60;3.42;;;14.00;98.30;;;;;;5048456;28;20032;-75
2024/04/02 11:42:21;;;;;;;10.50;4.47;;;14.00;98.00;;;;;;5057982;28;20031;-76
2024/04/02 11:44:47;;;;;;;6.03;3.15;;;14.10;97.70;;;;;;5051209;28;20032;-76
2024/04/02 11:47:13;;;;;;;9.52;4.53;;;14.00;97.70;;;;;;5055416;28;20439;-76
2024/04/02 11:49:42;;;;;;;12.10;4.65;;;14.10;97.70;;;;;;5050035;28;20067;-76
2024/04/02 11:52:09;;;;;;;9.70;3.95;;;14.10;97.50;;;;;;5058910;28;20430;-75
2024/04/02 11:54:35;;;;;;;10.60;3.97;;;14.20;97.60;;;;;;5054077;28;20111;-76
2024/04/02 12:00:10;;;;;;;9.73;3.92;;;14.30;97.30;;;;;;5064865;28;20044;-76
2024/04/02 12:02:43;;;;;;;8.52;3.85;;;14.30;97.50;;;;;;5062342;28;20032;-76
2024/04/02 12:05:10;;;;;;;7.88;3.70;;;14.40;97.60;;;;;;5068633;28;20036;-76
2024/04/02 12:07:36;;;;;;;13.10;4.03;;;14.40;97.40;;;;;;5057075;28;20075;-75
2024/04/02 12:10:04;;;;;;;7.43;3.58;;;14.40;97.20;;;;;;5063245;28;20434;-76
2024/04/02 12:12:30;;;;;;;7.38;4.35;;;14.40;96.90;;;;;;5059868;28;20131;-76
2024/04/02 12:14:57;;;;;;;9.73;4.35;;;14.50;97.10;;;;;;5052543;28;20029;-76
2024/04/02 12:17:23;;;;;;;12.02;3.70;;;14.50;96.90;;;;;;5049185;28;20057;-76
2024/04/02 12:19:55;;;;;;;10.65;4.13;;;14.50;96.90;;;;;;5058738;28;20036;-76
2024/04/02 12:22:21;;;;;;;13.10;4.63;;;14.50;97.00;;;;;;5061069;28;20468;-76
2024/04/02 12:24:47;;;;;;;4.50;3.03;;;14.60;97.00;;;;;;5053781;28;20091;-76
2024/04/02 12:27:13;;;;;;;7.22;2.78;;;14.60;97.20;;;;;;5059969;28;20171;-76
2024/04/02 12:29:39;;;;;;;7.07;3.03;;;14.60;97.30;;;;;;5048269;28;20036;-76
2024/04/02 12:32:07;;;;;;;7.78;3.65;;;14.70;97.00;;;;;;5054621;28;20021;-76
2024/04/02 12:34:34;;;;;;;9.55;3.53;;;14.70;96.80;;;;;;5055215;28;20074;-77
2024/04/02 12:37:01;;;;;;;10.55;3.55;;;14.70;97.00;;;;;;5062246;28;20068;-75
2024/04/02 12:39:28;;;;;;;9.85;3.25;;;14.70;96.60;;;;;;5060768;28;20036;-75
2024/04/02 12:41:54;;;;;;;7.38;2.85;;;14.70;96.80;;;;;;5060223;28;20098;-73
2024/04/02 12:44:20;;;;;;;7.43;2.13;;;14.80;96.60;;;;;;5054226;28;20021;-77
2024/04/02 12:46:45;;;;;;;6.15;2.13;;;14.80;96.40;;;;;;5052826;28;20032;-75